Portada
METAR-TAF:

METAR-TAF

Aeropuertos :

Agen, Francia

latitud: 44-11N, longitud: 000-36E, altitud: 61 m

Observación

El informe se hizo hace 25 minutos, a las 19:30 UTC
Viento calma
Temperatura 6°C
Humedad 93%
Presión 1018 hPa
Visibilidad 10 km o más
sin nubes por debajo de 1500 m y sin presencia de cumulonimbus.

METAR: LFBA 291930Z AUTO 00000KT CAVOK 06/05 Q1018 NOSIG

Hora: 20:55 (19:55 UTC)

Pronóstico

El informe se hizo hace 2 horas y 55 minutos, a las 17:00 UTC
Pronóstico válido del 29 a las 18 UTC al 30 a las 03 UTC
Viento 5 kt del oeste-noroeste
Visibilidad 10 km o más
sin nubes por debajo de 1500 m y sin presencia de cumulonimbus.
Evolucionando progresivamente
del 29 a las 22 UTC al 29 a las 24 UTC
Visibilidad: 0300 m
niebla

TAF: LFBA 291700Z 2918/3003 30005KT CAVOK BECMG 2922/2924 0300 FG VV///

Observaciones y pronósticos meteorológicos de más de 4000 aeropuertos (mensajes METAR y TAF).

Los puntos amarillos y rojos representan las estaciones disponibles.

Ponga el ratón en el punto deseado para ver el nombre de la estación.

Haga clic para ver las observaciones y los pronósticos meteorológicos.

Para cambiar el mapa : haga clic en los botones verdes con una cruz de color negro para hacer un zoom, en el botón verde con un guión para alejar o en las flechas verdes para mapas adyacentes.


METAR-TAF: